Time;durP1;ratioP1;P1;durP2;ratioP2;P2;SDS_P1;SDS_P2;PMS_P1;PMS_P2;Temp;Humidity;BMP_temperature;BMP_pressure;BME280_temperature;BME280_humidity;BME280_pressure;Samples;Min_cycle;Max_cycle;Signal;HPM_P1;HPM_P2
2021/06/26 00:00:34;;;;;;;0.80;0.70;;;19.60;99.90;;;;;;6209171;23;20171;-75
2021/06/26 00:03:01;;;;;;;0.77;0.60;;;19.60;99.90;;;;;;6209570;23;20285;-74
2021/06/26 00:05:30;;;;;;;1.10;0.80;;;19.60;99.90;;;;;;6210865;23;20183;-75
2021/06/26 00:07:59;;;;;;;1.63;0.70;;;19.60;99.90;;;;;;6213042;23;20199;-75
2021/06/26 00:10:26;;;;;;;0.77;0.73;;;19.60;99.90;;;;;;6211751;23;20175;-75
2021/06/26 00:12:53;;;;;;;0.70;0.70;;;19.60;99.90;;;;;;6211714;23;20202;-75
2021/06/26 00:15:20;;;;;;;0.60;0.60;;;19.60;99.90;;;;;;6211277;23;20186;-75
2021/06/26 00:17:47;;;;;;;1.08;0.70;;;19.60;99.90;;;;;;6211879;23;20214;-75
2021/06/26 00:20:15;;;;;;;0.70;0.70;;;19.70;99.90;;;;;;6214948;23;20171;-75
2021/06/26 00:22:42;;;;;;;1.00;0.85;;;19.70;99.90;;;;;;6211587;23;20205;-75
2021/06/26 00:25:12;;;;;;;0.80;0.80;;;19.60;99.90;;;;;;6213511;23;20171;-73
2021/06/26 00:27:39;;;;;;;1.27;0.70;;;19.70;99.90;;;;;;6228024;22;20211;-74
2021/06/26 00:30:08;;;;;;;0.73;0.73;;;19.70;99.90;;;;;;6211685;23;20205;-75
2021/06/26 00:32:35;;;;;;;0.60;0.60;;;19.60;99.90;;;;;;6210739;23;20776;-75
2021/06/26 00:35:02;;;;;;;0.88;0.80;;;19.40;99.90;;;;;;6211658;23;20202;-75
2021/06/26 00:37:29;;;;;;;0.75;0.75;;;19.30;99.90;;;;;;6212652;23;21064;-75
2021/06/26 00:39:56;;;;;;;0.70;0.70;;;19.40;99.90;;;;;;6211497;23;20171;-75
2021/06/26 00:42:25;;;;;;;0.80;0.68;;;19.50;99.90;;;;;;6211392;23;20666;-74
2021/06/26 00:44:52;;;;;;;0.70;0.70;;;19.50;99.90;;;;;;6210744;23;20163;-75
2021/06/26 00:47:19;;;;;;;0.60;0.60;;;19.50;99.90;;;;;;6211903;23;20194;-73
2021/06/26 00:49:46;;;;;;;0.73;0.68;;;19.50;99.90;;;;;;6212238;23;20636;-75
2021/06/26 00:52:13;;;;;;;0.93;0.80;;;19.50;99.90;;;;;;6210768;23;20202;-75
2021/06/26 00:54:40;;;;;;;1.00;0.75;;;19.50;99.90;;;;;;6212030;23;20197;-75
2021/06/26 00:57:08;;;;;;;0.85;0.70;;;19.40;99.90;;;;;;6209548;23;20179;-75
2021/06/26 00:59:37;;;;;;;0.80;0.73;;;19.40;99.90;;;;;;6211724;23;20191;-75
2021/06/26 01:02:06;;;;;;;0.80;0.80;;;19.40;99.90;;;;;;6211552;23;20171;-75
2021/06/26 01:04:34;;;;;;;0.60;0.60;;;19.30;99.90;;;;;;6212318;23;20167;-75
2021/06/26 01:07:01;;;;;;;0.75;0.73;;;19.30;99.90;;;;;;6212441;23;20635;-75
2021/06/26 01:09:28;;;;;;;0.70;0.70;;;19.30;99.90;;;;;;6211080;23;20201;-72
2021/06/26 01:11:57;;;;;;;1.02;0.90;;;19.30;99.90;;;;;;6212370;23;20197;-72
2021/06/26 01:14:25;;;;;;;0.80;0.80;;;19.30;99.90;;;;;;6210421;23;20187;-75
2021/06/26 01:16:54;;;;;;;0.85;0.85;;;19.20;99.90;;;;;;6228435;23;20167;-76
2021/06/26 01:19:21;;;;;;;0.80;0.80;;;19.20;99.90;;;;;;6212124;23;20199;-75
2021/06/26 01:21:54;;;;;;;0.82;0.82;;;19.10;99.90;;;;;;6212201;23;20627;-75
2021/06/26 01:24:23;;;;;;;0.80;0.80;;;18.90;99.90;;;;;;6210700;23;20573;-75
2021/06/26 01:26:57;;;;;;;0.93;0.82;;;18.80;99.90;;;;;;6211665;23;20281;-75
2021/06/26 01:29:24;;;;;;;0.77;0.77;;;18.80;99.90;;;;;;6210558;23;20206;-74
2021/06/26 01:31:51;;;;;;;0.68;0.68;;;18.30;99.90;;;;;;6208490;23;20178;-75
2021/06/26 01:34:18;;;;;;;0.77;0.77;;;18.10;99.90;;;;;;6206921;23;20675;-75
2021/06/26 01:36:46;;;;;;;0.73;0.73;;;18.10;99.90;;;;;;6208751;23;20197;-75
2021/06/26 01:39:13;;;;;;;0.90;0.90;;;18.40;99.90;;;;;;6207898;23;20203;-75
2021/06/26 01:41:41;;;;;;;0.77;0.77;;;18.60;99.90;;;;;;6208284;23;20175;-75
2021/06/26 01:44:09;;;;;;;1.27;0.80;;;18.80;99.90;;;;;;6210536;23;20614;-74
2021/06/26 01:46:38;;;;;;;1.23;0.70;;;18.90;99.90;;;;;;6209280;23;20182;-75
2021/06/26 01:49:10;;;;;;;0.95;0.90;;;19.00;99.90;;;;;;6208591;23;20207;-76
2021/06/26 01:51:37;;;;;;;0.85;0.85;;;19.10;99.90;;;;;;6210518;23;20473;-75
2021/06/26 01:54:05;;;;;;;0.80;0.80;;;19.10;99.90;;;;;;6208209;23;20203;-75
2021/06/26 01:56:33;;;;;;;0.70;0.70;;;19.10;99.90;;;;;;6207647;23;20171;-75
2021/06/26 01:59:01;;;;;;;0.85;0.73;;;18.90;99.90;;;;;;6208408;23;20206;-75
2021/06/26 02:01:28;;;;;;;0.88;0.73;;;18.90;99.90;;;;;;6210816;23;20175;-75
2021/06/26 02:03:55;;;;;;;0.75;0.70;;;18.80;99.90;;;;;;6211816;23;20201;-73
2021/06/26 02:06:23;;;;;;;0.88;0.88;;;18.80;99.90;;;;;;6221628;23;20167;-75
2021/06/26 02:08:50;;;;;;;0.70;0.70;;;18.80;99.90;;;;;;6219537;23;20209;-75
2021/06/26 02:11:17;;;;;;;0.80;0.80;;;18.70;99.90;;;;;;6210629;23;20669;-75
2021/06/26 02:13:44;;;;;;;0.98;0.80;;;18.70;99.90;;;;;;6211296;23;20207;-75
2021/06/26 02:16:12;;;;;;;1.00;1.00;;;18.70;99.90;;;;;;6211752;23;20171;-76
2021/06/26 02:18:40;;;;;;;0.90;0.90;;;18.70;99.90;;;;;;6210554;23;20209;-74
2021/06/26 02:21:07;;;;;;;1.40;1.30;;;18.70;99.90;;;;;;6210242;23;20174;-75
2021/06/26 02:23:34;;;;;;;0.98;0.88;;;18.60;99.90;;;;;;6211056;23;20217;-75
2021/06/26 02:26:01;;;;;;;0.90;0.90;;;18.70;99.90;;;;;;6211987;23;20190;-75
2021/06/26 02:28:28;;;;;;;0.95;0.95;;;18.60;99.90;;;;;;6210283;23;20203;-74
2021/06/26 02:30:56;;;;;;;1.00;0.90;;;18.50;99.90;;;;;;6211661;23;20171;-75
2021/06/26 02:33:24;;;;;;;0.85;0.85;;;18.60;99.90;;;;;;6210393;23;20206;-74
2021/06/26 02:35:51;;;;;;;1.00;1.00;;;18.60;99.90;;;;;;6212230;23;20659;-75
2021/06/26 02:38:18;;;;;;;1.48;0.90;;;18.60;99.90;;;;;;6210894;23;20217;-74
2021/06/26 02:40:45;;;;;;;1.02;1.00;;;18.60;99.90;;;;;;6212335;23;20167;-74
2021/06/26 02:43:12;;;;;;;0.80;0.80;;;18.60;99.90;;;;;;6210450;23;20195;-74
2021/06/26 02:45:39;;;;;;;0.90;0.77;;;18.50;99.90;;;;;;6211529;23;20167;-75
2021/06/26 02:48:07;;;;;;;0.93;0.80;;;18.50;99.90;;;;;;6211366;23;20201;-75
2021/06/26 02:50:35;;;;;;;0.85;0.70;;;18.40;99.90;;;;;;6212566;23;20635;-74
2021/06/26 02:53:02;;;;;;;1.00;1.00;;;18.40;99.90;;;;;;6211692;23;20205;-72
2021/06/26 02:55:30;;;;;;;0.90;0.90;;;18.40;99.90;;;;;;6215270;23;20186;-73
2021/06/26 02:57:57;;;;;;;0.50;0.50;;;18.40;99.90;;;;;;6229119;23;20199;-72
2021/06/26 03:00:25;;;;;;;0.80;0.80;;;18.40;99.90;;;;;;6218336;23;20175;-72
2021/06/26 03:02:53;;;;;;;0.68;0.68;;;18.40;99.90;;;;;;6217815;23;20199;-73
2021/06/26 03:05:20;;;;;;;1.25;1.10;;;18.40;99.90;;;;;;6211716;23;20167;-75
2021/06/26 03:07:52;;;;;;;0.60;0.60;;;18.40;99.90;;;;;;6210605;23;20514;-74
2021/06/26 03:10:21;;;;;;;0.90;0.90;;;18.30;99.90;;;;;;6211272;23;20178;-75
2021/06/26 03:12:49;;;;;;;0.73;0.73;;;18.30;99.90;;;;;;6210237;23;20190;-75
2021/06/26 03:15:16;;;;;;;1.40;0.70;;;18.40;99.90;;;;;;6210712;23;20197;-75
2021/06/26 03:17:43;;;;;;;0.70;0.70;;;18.50;99.90;;;;;;6209604;23;22504;-75
2021/06/26 03:20:11;;;;;;;0.60;0.60;;;18.40;99.90;;;;;;6211482;23;20167;-75
2021/06/26 03:22:38;;;;;;;0.80;0.80;;;18.40;99.90;;;;;;6209497;23;20174;-75
2021/06/26 03:25:09;;;;;;;0.80;0.80;;;18.40;99.90;;;;;;6212686;23;20163;-74
2021/06/26 03:27:37;;;;;;;2.47;0.85;;;18.50;99.90;;;;;;6208414;23;20171;-75
2021/06/26 03:30:06;;;;;;;0.90;0.90;;;18.50;99.90;;;;;;6211665;23;20181;-78
2021/06/26 03:32:34;;;;;;;2.10;0.70;;;18.40;99.90;;;;;;6211541;23;20210;-76
2021/06/26 03:35:01;;;;;;;3.33;0.70;;;18.40;99.90;;;;;;6211050;23;20194;-76
2021/06/26 03:37:29;;;;;;;1.38;0.90;;;18.40;99.90;;;;;;6210784;23;20171;-80
2021/06/26 03:39:56;;;;;;;0.70;0.70;;;18.20;99.90;;;;;;6211538;23;20195;-78
2021/06/26 03:42:24;;;;;;;1.23;0.90;;;18.10;99.90;;;;;;6211258;23;20178;-78
2021/06/26 03:44:51;;;;;;;0.75;0.70;;;18.00;99.90;;;;;;6210885;23;20190;-78
2021/06/26 03:47:19;;;;;;;0.77;0.77;;;17.90;99.90;;;;;;6213373;23;20167;-79
2021/06/26 03:49:46;;;;;;;0.80;0.80;;;17.90;99.90;;;;;;6226527;23;20197;-75
2021/06/26 03:52:13;;;;;;;0.70;0.70;;;17.80;99.90;;;;;;6210728;23;20170;-76
2021/06/26 03:54:40;;;;;;;0.77;0.77;;;17.70;99.90;;;;;;6210676;23;20198;-76
2021/06/26 03:57:07;;;;;;;0.80;0.80;;;17.60;99.90;;;;;;6211050;23;20500;-75
2021/06/26 03:59:36;;;;;;;0.52;0.52;;;17.50;99.90;;;;;;6209638;23;20542;-74
2021/06/26 04:02:06;;;;;;;0.77;0.77;;;17.50;99.90;;;;;;6209708;23;20167;-75
2021/06/26 04:04:34;;;;;;;0.57;0.57;;;17.50;99.90;;;;;;6209834;23;20207;-76
2021/06/26 04:07:01;;;;;;;0.70;0.70;;;17.70;99.90;;;;;;6209424;23;20495;-75
2021/06/26 04:09:29;;;;;;;1.17;0.80;;;17.80;99.90;;;;;;6210512;23;20219;-76
2021/06/26 04:11:56;;;;;;;0.70;0.70;;;18.00;99.90;;;;;;6211580;23;20657;-76
2021/06/26 04:14:23;;;;;;;1.60;0.60;;;18.10;99.90;;;;;;6209433;23;20203;-75
2021/06/26 04:16:52;;;;;;;0.80;0.60;;;18.30;99.90;;;;;;6209410;23;20182;-79
2021/06/26 04:19:19;;;;;;;1.13;0.88;;;18.20;99.90;;;;;;6209295;23;20718;-75
2021/06/26 04:21:47;;;;;;;1.75;0.90;;;18.20;99.90;;;;;;6211087;23;20569;-75
2021/06/26 04:24:14;;;;;;;1.25;0.70;;;18.20;99.90;;;;;;6211204;23;20544;-76
2021/06/26 04:26:41;;;;;;;0.95;0.80;;;18.10;99.90;;;;;;6211760;23;20242;-76
2021/06/26 04:29:08;;;;;;;0.65;0.65;;;18.00;99.90;;;;;;6209866;23;20297;-76
2021/06/26 04:31:35;;;;;;;0.70;0.70;;;18.00;99.90;;;;;;6211286;23;20466;-75
2021/06/26 04:34:04;;;;;;;0.60;0.60;;;18.20;99.90;;;;;;6210389;23;20232;-75
2021/06/26 04:36:31;;;;;;;0.85;0.85;;;18.30;99.90;;;;;;6211150;23;20815;-75
2021/06/26 04:38:58;;;;;;;0.70;0.60;;;18.50;99.90;;;;;;6211717;23;20294;-77
2021/06/26 04:41:27;;;;;;;0.75;0.73;;;18.50;99.90;;;;;;6214911;23;20238;-75
2021/06/26 04:43:54;;;;;;;0.70;0.70;;;18.60;99.90;;;;;;6211232;23;20237;-76
2021/06/26 04:46:22;;;;;;;0.80;0.80;;;18.60;99.90;;;;;;6212856;23;20645;-76
2021/06/26 04:48:49;;;;;;;0.93;0.90;;;18.70;99.90;;;;;;6211332;23;20213;-75
2021/06/26 04:51:19;;;;;;;0.80;0.80;;;18.50;99.90;;;;;;6211414;23;20171;-75
2021/06/26 04:53:46;;;;;;;1.45;1.00;;;18.40;99.90;;;;;;6212491;23;20199;-75
2021/06/26 04:56:13;;;;;;;2.50;0.80;;;18.30;99.90;;;;;;6217887;23;20195;-78
2021/06/26 04:58:41;;;;;;;0.85;0.82;;;18.40;99.90;;;;;;6212594;23;20305;-76
2021/06/26 05:01:08;;;;;;;0.90;0.90;;;18.40;99.90;;;;;;6211801;23;20203;-76
2021/06/26 05:03:35;;;;;;;0.95;0.93;;;18.20;99.90;;;;;;6212188;23;20235;-75
2021/06/26 05:06:02;;;;;;;0.90;0.90;;;18.20;99.90;;;;;;6213019;23;20183;-77
2021/06/26 05:08:31;;;;;;;1.23;1.13;;;18.10;99.90;;;;;;6213643;23;20255;-75
2021/06/26 05:10:58;;;;;;;1.02;0.93;;;18.00;99.90;;;;;;6214203;23;20175;-75
2021/06/26 05:13:25;;;;;;;2.05;0.98;;;18.00;99.90;;;;;;6213227;23;20626;-75
2021/06/26 05:15:52;;;;;;;1.13;1.00;;;18.00;99.90;;;;;;6213715;23;20214;-76
2021/06/26 05:18:19;;;;;;;0.93;0.93;;;18.00;99.90;;;;;;6213690;23;20198;-76
2021/06/26 05:20:46;;;;;;;1.25;1.00;;;17.90;99.90;;;;;;6214499;23;20163;-77
2021/06/26 05:23:15;;;;;;;0.90;0.90;;;17.80;99.90;;;;;;6212693;23;20524;-76
2021/06/26 05:25:44;;;;;;;0.90;0.90;;;18.00;99.90;;;;;;6214224;23;20171;-76
2021/06/26 05:28:12;;;;;;;1.50;0.80;;;18.10;99.90;;;;;;6212771;23;20563;-79
2021/06/26 05:30:41;;;;;;;1.33;1.23;;;18.20;99.90;;;;;;6218687;23;20151;-78
2021/06/26 05:33:08;;;;;;;1.27;0.90;;;18.50;99.90;;;;;;6225387;23;20262;-76
2021/06/26 05:35:36;;;;;;;3.15;1.00;;;18.60;99.90;;;;;;6211995;23;20209;-76
2021/06/26 05:38:03;;;;;;;0.80;0.80;;;18.70;99.90;;;;;;6212115;23;20206;-76
2021/06/26 05:40:30;;;;;;;1.17;1.08;;;18.70;99.90;;;;;;6213327;23;20182;-76
2021/06/26 05:42:59;;;;;;;0.90;0.90;;;18.70;99.90;;;;;;6212355;23;20171;-76
2021/06/26 05:45:26;;;;;;;0.98;0.98;;;18.50;99.90;;;;;;6211803;23;20483;-77
2021/06/26 05:47:54;;;;;;;1.13;1.02;;;18.40;99.90;;;;;;6211367;23;20278;-76
2021/06/26 05:50:21;;;;;;;2.03;1.50;;;18.30;99.90;;;;;;6212984;23;20177;-77
2021/06/26 05:52:49;;;;;;;1.33;1.13;;;18.20;99.90;;;;;;6213189;23;20178;-77
2021/06/26 05:55:17;;;;;;;1.20;1.10;;;18.30;99.90;;;;;;6211117;23;20199;-77
2021/06/26 05:57:44;;;;;;;1.10;1.10;;;18.60;99.90;;;;;;6211474;23;20187;-75
2021/06/26 06:00:15;;;;;;;1.30;1.00;;;18.80;99.90;;;;;;6209930;23;20195;-76
2021/06/26 06:02:43;;;;;;;1.13;1.00;;;18.80;99.90;;;;;;6211942;23;20591;-75
2021/06/26 06:05:12;;;;;;;1.13;1.02;;;18.90;99.90;;;;;;6210930;23;20195;-76
2021/06/26 06:07:40;;;;;;;0.85;0.85;;;19.10;99.90;;;;;;6213967;23;20249;-75
2021/06/26 06:10:10;;;;;;;1.23;0.80;;;19.30;99.90;;;;;;6212710;23;20242;-76
2021/06/26 06:12:39;;;;;;;0.90;0.90;;;19.40;99.90;;;;;;6212815;23;20247;-75
2021/06/26 06:15:09;;;;;;;0.90;0.90;;;19.50;99.90;;;;;;6213755;23;20282;-76
2021/06/26 06:17:38;;;;;;;0.93;0.93;;;19.50;99.90;;;;;;6214627;23;20638;-75
2021/06/26 06:20:07;;;;;;;1.80;1.10;;;19.60;99.90;;;;;;6213684;23;20257;-76
2021/06/26 06:22:35;;;;;;;1.13;0.95;;;19.60;99.90;;;;;;6214322;23;20615;-76
2021/06/26 06:25:03;;;;;;;3.00;1.17;;;19.60;99.90;;;;;;6229471;23;20488;-76
2021/06/26 06:27:30;;;;;;;1.25;0.98;;;19.60;99.90;;;;;;6218557;23;20171;-76
2021/06/26 06:29:57;;;;;;;0.80;0.80;;;19.60;99.90;;;;;;6218684;23;20707;-76
2021/06/26 06:32:24;;;;;;;1.50;1.15;;;19.60;99.90;;;;;;6215181;23;20631;-76
2021/06/26 06:34:53;;;;;;;1.08;1.02;;;19.90;99.90;;;;;;6214015;23;20205;-77
2021/06/26 06:37:20;;;;;;;1.55;1.15;;;20.00;99.90;;;;;;6214518;23;20183;-75
2021/06/26 06:39:47;;;;;;;2.33;1.10;;;19.90;99.90;;;;;;6214718;23;20586;-76
2021/06/26 06:42:14;;;;;;;1.52;1.10;;;19.90;99.90;;;;;;6215415;23;20178;-76
2021/06/26 06:44:41;;;;;;;1.05;0.95;;;19.80;99.90;;;;;;6213433;23;20203;-77
2021/06/26 06:47:09;;;;;;;1.30;1.20;;;19.60;99.90;;;;;;6214261;23;20250;-76
2021/06/26 06:49:36;;;;;;;1.15;0.90;;;19.70;99.90;;;;;;6212938;23;20289;-76
2021/06/26 06:52:05;;;;;;;0.95;0.90;;;19.70;99.90;;;;;;6213733;23;20250;-76
2021/06/26 06:54:33;;;;;;;1.02;1.02;;;19.90;99.90;;;;;;6212291;23;20286;-75
2021/06/26 06:57:00;;;;;;;1.10;1.00;;;20.20;99.90;;;;;;6212584;23;20626;-76
2021/06/26 06:59:27;;;;;;;0.85;0.80;;;20.30;99.90;;;;;;6212214;23;20218;-76
2021/06/26 07:01:54;;;;;;;1.05;1.05;;;20.30;99.90;;;;;;6212939;23;20710;-76
2021/06/26 07:04:21;;;;;;;2.00;1.20;;;20.50;99.90;;;;;;6211465;23;20209;-77
2021/06/26 07:06:48;;;;;;;2.17;1.10;;;20.60;99.90;;;;;;6213179;23;20185;-77
2021/06/26 07:09:17;;;;;;;1.17;0.90;;;20.80;99.90;;;;;;6212651;23;20195;-76
2021/06/26 07:11:44;;;;;;;1.98;1.10;;;20.90;99.90;;;;;;6214479;23;20198;-75
2021/06/26 07:14:11;;;;;;;1.30;1.20;;;20.80;99.90;;;;;;6215379;23;20205;-75
2021/06/26 07:16:38;;;;;;;1.83;1.33;;;20.80;99.90;;;;;;6230510;23;20226;-76
2021/06/26 07:19:06;;;;;;;1.13;0.88;;;20.70;99.90;;;;;;6212738;23;20199;-76
2021/06/26 07:21:33;;;;;;;1.75;0.80;;;20.70;99.90;;;;;;6213302;23;20624;-76
2021/06/26 07:24:00;;;;;;;1.23;0.88;;;20.60;99.90;;;;;;6211271;23;20696;-76
2021/06/26 07:26:29;;;;;;;1.13;1.00;;;20.80;99.90;;;;;;6212917;23;20242;-76
2021/06/26 07:28:56;;;;;;;1.42;1.02;;;21.00;99.90;;;;;;6212666;23;20229;-76
2021/06/26 07:31:23;;;;;;;1.13;1.02;;;21.40;99.90;;;;;;6212019;23;20258;-76
2021/06/26 07:33:50;;;;;;;1.00;0.90;;;21.50;99.90;;;;;;6212920;23;20226;-76
2021/06/26 07:36:18;;;;;;;1.33;1.00;;;21.70;99.90;;;;;;6211098;23;20198;-75
2021/06/26 07:38:45;;;;;;;1.27;1.15;;;21.70;99.90;;;;;;6210802;23;20241;-75
2021/06/26 07:41:12;;;;;;;1.30;1.20;;;21.80;99.90;;;;;;6212331;23;20651;-77
2021/06/26 07:43:41;;;;;;;1.25;1.15;;;21.70;99.90;;;;;;6212048;23;20718;-76
2021/06/26 07:46:12;;;;;;;1.17;1.08;;;21.80;99.90;;;;;;6212836;23;20223;-77
2021/06/26 07:48:39;;;;;;;0.90;0.90;;;21.70;99.90;;;;;;6211834;23;20630;-76
2021/06/26 07:51:06;;;;;;;0.93;0.93;;;21.70;99.90;;;;;;6213654;23;20254;-75
2021/06/26 07:53:33;;;;;;;1.98;1.20;;;21.90;99.90;;;;;;6210762;23;20202;-76
2021/06/26 07:56:01;;;;;;;2.05;1.17;;;22.00;99.90;;;;;;6212789;23;20191;-75
2021/06/26 07:58:29;;;;;;;1.15;1.05;;;21.90;99.90;;;;;;6215034;23;20218;-76
2021/06/26 08:00:58;;;;;;;1.23;1.02;;;22.10;99.90;;;;;;6217918;23;20558;-76
2021/06/26 08:03:26;;;;;;;1.13;1.02;;;22.30;99.90;;;;;;6211628;23;20699;-75
2021/06/26 08:05:54;;;;;;;1.13;1.02;;;22.40;99.90;;;;;;6212969;23;20246;-79
2021/06/26 08:08:22;;;;;;;0.90;0.90;;;22.50;99.90;;;;;;6224462;23;20209;-76
2021/06/26 08:10:50;;;;;;;1.02;1.00;;;22.60;99.90;;;;;;6208472;23;20321;-74
2021/06/26 08:13:18;;;;;;;1.35;1.02;;;22.60;99.90;;;;;;6209665;23;20674;-75
2021/06/26 08:15:47;;;;;;;0.90;0.90;;;22.60;99.90;;;;;;6210040;23;20229;-75
2021/06/26 08:18:15;;;;;;;1.30;1.10;;;23.00;99.90;;;;;;6210918;23;20203;-75
2021/06/26 08:20:43;;;;;;;0.95;0.95;;;23.20;99.90;;;;;;6210789;23;20602;-75
2021/06/26 08:23:11;;;;;;;0.90;0.90;;;23.40;99.90;;;;;;6211342;23;20167;-76
2021/06/26 08:25:38;;;;;;;0.93;0.93;;;23.60;99.90;;;;;;6210917;23;20211;-76
2021/06/26 08:28:06;;;;;;;0.88;0.80;;;23.70;99.90;;;;;;6213104;23;20526;-76
2021/06/26 08:30:33;;;;;;;1.20;1.10;;;23.60;99.90;;;;;;6213022;23;20201;-76
2021/06/26 08:33:01;;;;;;;1.15;1.05;;;23.60;99.90;;;;;;6214347;23;20194;-76
2021/06/26 08:35:29;;;;;;;1.20;1.00;;;23.50;99.90;;;;;;6212140;23;20848;-76
2021/06/26 08:37:56;;;;;;;1.00;1.00;;;23.60;99.90;;;;;;6213335;23;20510;-75
2021/06/26 08:40:24;;;;;;;1.00;0.82;;;23.80;99.90;;;;;;6213070;23;20195;-76
2021/06/26 08:42:52;;;;;;;0.90;0.90;;;24.10;99.90;;;;;;6214452;23;20173;-76
2021/06/26 08:45:21;;;;;;;1.27;0.80;;;24.40;99.90;;;;;;6212641;23;20199;-76
2021/06/26 08:47:49;;;;;;;2.17;1.00;;;24.30;99.90;;;;;;6210541;23;20187;-76
2021/06/26 08:50:16;;;;;;;1.20;1.10;;;24.10;99.90;;;;;;6212412;23;20199;-76
2021/06/26 08:52:45;;;;;;;0.80;0.80;;;24.00;99.90;;;;;;6214581;23;20167;-78
2021/06/26 08:55:13;;;;;;;2.17;1.00;;;23.90;99.90;;;;;;6213709;23;20202;-76
2021/06/26 08:57:42;;;;;;;1.17;0.90;;;24.10;99.90;;;;;;6220001;23;20185;-77
2021/06/26 09:00:12;;;;;;;1.27;1.17;;;24.10;99.90;;;;;;6223055;23;20253;-77
2021/06/26 09:02:40;;;;;;;0.93;0.93;;;24.40;99.90;;;;;;6213887;23;20258;-76
2021/06/26 09:05:08;;;;;;;1.20;1.10;;;24.60;99.90;;;;;;6214037;23;20195;-76
2021/06/26 09:07:37;;;;;;;0.90;0.80;;;24.70;99.90;;;;;;6214755;23;20329;-76
2021/06/26 09:10:14;;;;;;;1.35;1.00;;;24.70;99.90;;;;;;6213955;23;20222;-76
2021/06/26 09:12:42;;;;;;;0.95;0.93;;;24.60;99.90;;;;;;6214438;23;20239;-76
2021/06/26 09:15:10;;;;;;;0.90;0.80;;;24.50;99.90;;;;;;6213290;23;20203;-76
2021/06/26 09:17:38;;;;;;;2.15;1.00;;;24.60;99.90;;;;;;6213630;23;20187;-76
2021/06/26 09:20:09;;;;;;;0.98;0.98;;;24.80;99.90;;;;;;6212409;23;20286;-75
2021/06/26 09:22:41;;;;;;;0.85;0.85;;;25.20;99.90;;;;;;6212888;23;20333;-76
2021/06/26 09:25:25;;;;;;;1.70;1.08;;;25.30;99.90;;;;;;6213910;23;20713;-78
2021/06/26 09:27:53;;;;;;;3.40;0.93;;;25.20;99.90;;;;;;6215895;23;20186;-76
2021/06/26 09:30:33;;;;;;;1.00;0.80;;;25.10;99.90;;;;;;6223722;23;20203;-76
2021/06/26 09:33:02;;;;;;;1.13;0.80;;;25.00;99.90;;;;;;6216367;23;20518;-78
2021/06/26 09:35:30;;;;;;;0.88;0.88;;;25.10;99.90;;;;;;6215967;23;20289;-76
2021/06/26 09:37:57;;;;;;;0.80;0.80;;;25.20;99.90;;;;;;6215939;23;20203;-76
2021/06/26 09:40:29;;;;;;;1.25;1.15;;;25.30;99.90;;;;;;6215255;23;20198;-76
2021/06/26 09:42:56;;;;;;;0.80;0.80;;;25.40;99.90;;;;;;6214981;23;20181;-76
2021/06/26 09:45:23;;;;;;;1.08;0.98;;;25.50;99.90;;;;;;6214245;23;20282;-76
2021/06/26 09:47:51;;;;;;;1.08;0.98;;;25.60;99.90;;;;;;6215332;23;20732;-76
2021/06/26 09:50:19;;;;;;;0.75;0.75;;;25.60;99.90;;;;;;6230336;23;20209;-75
2021/06/26 09:52:48;;;;;;;0.88;0.88;;;25.60;99.90;;;;;;6214522;23;20589;-77
2021/06/26 09:55:20;;;;;;;2.67;0.90;;;25.70;99.90;;;;;;6215280;23;20241;-77
2021/06/26 09:57:49;;;;;;;1.40;0.60;;;25.90;99.90;;;;;;6214952;23;20206;-77
2021/06/26 10:00:19;;;;;;;1.20;0.85;;;25.90;99.90;;;;;;6214101;23;20241;-76
2021/06/26 10:02:46;;;;;;;0.80;0.80;;;26.00;99.90;;;;;;6215696;23;20167;-76
2021/06/26 10:05:15;;;;;;;1.20;0.70;;;26.20;99.90;;;;;;6214688;23;20230;-75
2021/06/26 10:07:44;;;;;;;1.05;0.80;;;26.20;99.90;;;;;;6215656;23;20648;-79
2021/06/26 10:10:14;;;;;;;0.70;0.70;;;26.20;99.90;;;;;;6215330;23;20582;-77
2021/06/26 10:12:42;;;;;;;0.82;0.70;;;26.10;99.90;;;;;;6216504;23;20182;-76
2021/06/26 10:15:13;;;;;;;0.80;0.80;;;26.00;99.90;;;;;;6213326;23;20206;-76
2021/06/26 10:17:41;;;;;;;0.80;0.80;;;26.20;99.90;;;;;;6216277;23;20266;-77
2021/06/26 10:20:11;;;;;;;0.80;0.80;;;26.30;99.90;;;;;;6213699;23;20285;-76
2021/06/26 10:22:40;;;;;;;1.10;0.90;;;26.40;99.90;;;;;;6213312;23;20250;-77
2021/06/26 10:25:10;;;;;;;1.05;0.73;;;26.70;99.90;;;;;;6215522;23;20274;-77
2021/06/26 10:27:38;;;;;;;1.23;0.70;;;26.80;99.90;;;;;;6214930;23;20198;-78
2021/06/26 10:30:18;;;;;;;0.90;0.90;;;26.70;99.90;;;;;;6213747;23;20199;-78
2021/06/26 10:32:55;;;;;;;0.75;0.70;;;26.70;99.90;;;;;;6215176;23;20151;-77
2021/06/26 10:35:23;;;;;;;0.88;0.88;;;26.70;99.90;;;;;;6213159;23;20218;-78
2021/06/26 10:38:05;;;;;;;0.85;0.70;;;26.90;99.90;;;;;;6214529;23;20274;-77
2021/06/26 10:40:47;;;;;;;0.90;0.70;;;27.00;99.90;;;;;;6229067;23;20205;-77
2021/06/26 10:43:21;;;;;;;1.33;0.80;;;27.30;99.90;;;;;;6214578;23;20185;-77
2021/06/26 10:45:51;;;;;;;0.70;0.70;;;27.40;99.90;;;;;;6213261;23;20714;-77
2021/06/26 10:48:21;;;;;;;1.20;0.98;;;27.50;99.90;;;;;;6214609;23;20260;-77
2021/06/26 10:50:51;;;;;;;0.73;0.73;;;27.40;99.90;;;;;;6212256;23;20306;-77
2021/06/26 10:53:26;;;;;;;0.70;0.70;;;27.40;99.90;;;;;;6213874;23;20615;-78
2021/06/26 10:56:04;;;;;;;0.82;0.80;;;27.30;99.90;;;;;;6213822;23;20194;-77
2021/06/26 10:58:33;;;;;;;1.15;1.08;;;27.40;99.90;;;;;;6215136;23;20253;-78
2021/06/26 11:01:13;;;;;;;0.68;0.52;;;27.70;99.90;;;;;;6214380;23;20281;-78
2021/06/26 11:03:40;;;;;;;2.47;0.70;;;27.90;99.90;;;;;;6214396;23;20556;-77
2021/06/26 11:06:21;;;;;;;0.80;0.80;;;28.20;99.90;;;;;;6211440;23;20209;-77
2021/06/26 11:08:59;;;;;;;0.60;0.60;;;28.30;99.90;;;;;;6212652;23;20570;-78
2021/06/26 11:11:31;;;;;;;2.55;0.77;;;28.40;99.90;;;;;;6213181;23;20195;-77
2021/06/26 11:14:12;;;;;;;0.60;0.60;;;28.30;99.90;;;;;;6222806;23;20171;-76
2021/06/26 11:16:42;;;;;;;1.98;0.70;;;28.40;99.90;;;;;;6212930;23;20205;-76
2021/06/26 11:19:09;;;;;;;0.65;0.52;;;28.50;99.90;;;;;;6212926;23;20190;-76
2021/06/26 11:21:41;;;;;;;1.95;0.60;;;28.70;99.90;;;;;;6212556;23;20238;-76
2021/06/26 11:24:09;;;;;;;0.90;0.50;;;28.80;99.90;;;;;;6214006;23;20171;-76
2021/06/26 11:26:51;;;;;;;1.33;0.75;;;28.70;99.90;;;;;;6211822;23;20195;-76
2021/06/26 11:29:33;;;;;;;2.00;0.50;;;28.70;99.90;;;;;;6214999;23;20209;-78
2021/06/26 11:32:04;;;;;;;0.68;0.68;;;28.70;99.90;;;;;;6226406;23;20155;-78
2021/06/26 11:34:31;;;;;;;0.85;0.60;;;28.90;99.90;;;;;;6212862;23;20608;-78
2021/06/26 11:37:01;;;;;;;0.70;0.70;;;29.00;99.90;;;;;;6213738;23;20209;-78
2021/06/26 11:39:29;;;;;;;0.50;0.50;;;29.00;99.90;;;;;;6213374;23;20202;-80
2021/06/26 11:41:56;;;;;;;0.90;0.80;;;29.00;99.90;;;;;;6214944;23;20206;-78
2021/06/26 11:44:37;;;;;;;0.68;0.68;;;29.20;99.90;;;;;;6214003;23;20632;-77
2021/06/26 11:47:07;;;;;;;0.77;0.63;;;29.20;99.90;;;;;;6216453;23;20151;-78
2021/06/26 11:49:40;;;;;;;0.50;0.50;;;29.50;99.90;;;;;;6213048;23;20201;-77
2021/06/26 11:52:09;;;;;;;0.65;0.60;;;29.50;99.90;;;;;;6213692;23;20171;-78
2021/06/26 11:54:36;;;;;;;0.68;0.60;;;29.50;99.90;;;;;;6213053;23;20178;-78
2021/06/26 11:57:05;;;;;;;1.05;0.63;;;29.30;99.90;;;;;;6214191;23;20639;-78
2021/06/26 11:59:41;;;;;;;2.08;0.75;;;29.30;99.90;;;;;;6213176;23;20195;-78
2021/06/26 12:02:09;;;;;;;0.70;0.70;;;29.40;99.90;;;;;;6213602;23;20184;-78
2021/06/26 12:04:38;;;;;;;0.43;0.43;;;29.50;99.90;;;;;;6212709;23;20217;-78
2021/06/26 12:07:06;;;;;;;1.70;0.70;;;29.80;99.90;;;;;;6214676;23;20171;-78
2021/06/26 12:09:34;;;;;;;0.63;0.63;;;30.10;99.90;;;;;;6213762;23;20201;-78
2021/06/26 12:12:01;;;;;;;1.45;0.60;;;30.30;99.90;;;;;;6214614;23;20171;-78
2021/06/26 12:14:30;;;;;;;1.67;0.80;;;30.40;99.90;;;;;;6199003;23;20636;-80
2021/06/26 12:17:10;;;;;;;1.45;0.60;;;30.30;99.90;;;;;;6189861;23;20179;-77
2021/06/26 12:19:38;;;;;;;2.15;0.80;;;30.10;99.90;;;;;;6213209;23;20547;-78
2021/06/26 12:22:07;;;;;;;1.15;0.80;;;29.90;99.90;;;;;;6229778;23;20171;-78
2021/06/26 12:24:36;;;;;;;1.23;0.80;;;29.90;99.90;;;;;;6212768;23;20175;-78
2021/06/26 12:27:06;;;;;;;1.25;0.65;;;30.20;99.90;;;;;;6213525;23;20175;-78
2021/06/26 12:29:33;;;;;;;1.10;0.77;;;30.40;99.90;;;;;;6213220;23;20198;-78
2021/06/26 12:32:00;;;;;;;1.52;0.73;;;30.40;99.90;;;;;;6223538;23;20420;-79
2021/06/26 12:34:30;;;;;;;1.10;0.75;;;30.20;99.90;;;;;;6222817;23;20185;-79
2021/06/26 12:36:59;;;;;;;1.27;0.80;;;30.20;99.90;;;;;;6213844;23;20191;-79
2021/06/26 12:39:32;;;;;;;0.90;0.77;;;30.20;99.70;;;;;;6212369;23;20674;-79
2021/06/26 12:42:01;;;;;;;0.88;0.80;;;30.30;99.90;;;;;;6213980;23;20178;-79
2021/06/26 12:44:29;;;;;;;0.75;0.75;;;30.30;99.30;;;;;;6213557;23;20171;-79
2021/06/26 12:46:56;;;;;;;1.38;0.75;;;30.30;99.30;;;;;;6211896;23;20592;-79
2021/06/26 12:49:25;;;;;;;0.85;0.70;;;30.30;99.30;;;;;;6211345;23;20187;-80
2021/06/26 12:51:53;;;;;;;1.02;0.80;;;30.40;98.90;;;;;;6212945;23;20214;-79
2021/06/26 12:54:21;;;;;;;1.55;0.80;;;30.40;98.40;;;;;;6214081;23;20579;-78